Kezdőlap
METAR-TAF:

METAR-TAF

Repülőterek :

Malmö, Svédország

Malmői repülőtér

földrajzi szélesség: 55-33N, földrajzi hosszúság: 013-22E, magasság: 106 m

Jelenlegi meteorológiai megfigyelések

A jelentés 28 perccel ezelõtt készült, 11:20 UTC
Északi szél 8 kt
Hőmérséklet 19°C
Páratartalom 60%
Légköri nyomás 1017 hPa
Látótávolság 10 km, vagy több
Szórványos felhőzet 3800 lábon

METAR: ESMS 231120Z 36008KT 9999 SCT038 19/11 Q1017

Idő: 13:48 (11:48 UTC)

Előrejelzés

A jelentés 48 perccel ezelõtt készült, 11:00 UTC
Az előrejelzés 23-én 12 óra UTC és 24-én 12 óra UTC között érvényes
Dél-délkeleti szél 6 kt
Látótávolság 10 km, vagy több
Szórványos felhőzet 3000 lábon
Valószínűség 40%
23-én 22 óra UTC és 24-én 07 óra UTC között
Látótávolság: 1200 m
Párásság

TAF: ESMS 231100Z 2312/2412 15006KT 9999 SCT030 PROB40 2322/2407 1200 BR

Meteorológiai megfigyelések és előrejelzések több, mint 4000 repülőtéren (METAR és TAF jelentéseket).

A térképen piros és sárga pontok jelzik az elérhető meteorológiai állomásokat.

Mozgassa az egeret a pont fölött, hogy megjelenjen az állomás neve.

Azután kattintson az időjárási megfigyelések és előrejelzések megtekintéséhez.

A térkép megváltoztatása: kattintson a fekete keresztel jelölt zöld gombra ráközelítéshez, a vonallal jelölt zöld gombra távolításhoz, vagy a zöld nyilakra a szomszédos térképek eléréséhez.


METAR-TAF: